Indianapolis, Indiana
Traffic Map
Current Weather Conditions
Indianapolis, Indiana
Broken Clouds
Broken Clouds
23°
Feels Like: 23°
Wind Chill: 23° Ceiling: 8500
Heat Index: 23° Visibility: 10mi
Dew Point: 13° Wind: 32mph
Humidity: 55% Direction: 210° (SSW)
Pressure: 30.04in Gusts: 40mph
Raw Report DataKIND 201754Z 21028G35KT 10SM SCT046 BKN085 BKN130 BKN250 23/13 A3004 RMK AO2 PK WND 20039/1736 SLP169 60000 T02280133 10233 20183 51004 $
Traffic Incident Summary
Active as of:
Severity:
Category:
InformationThere was an issue retrieving the traffic information for this location. Please try a different location or try again shortly.
Advertisements